West Point, NE

5:02 AM CST on February 12, 2016 (GMT -0600)
Skywave Wireless, Inc. | | Change Station
CLOSE
Current Station
Personal Weather Station
Location: West Point, NE
Elevation: 1312 ft
Nearby Weather Stations

Elev 1312 ft 41.84 °N, 96.71 °W | Updated 14 seconds ago

Partly Cloudy
Partly Cloudy
20.1 °F
Feels Like 11 °F
N
6.7
Wind Variable Wind from North
Gusts 7.4 mph

Today
High -- | Low -- °F
--% Chance of Precip.
Yesterday
High -- | Low -- °F
Precip. -- in
Pressure 30.38 in
Visibility 6.0 miles
Clouds Mostly Cloudy 3000 ft
Overcast 4200 ft
Windchill 11 °F
Dew Point 13 °F
Humidity 72%
Rainfall 0.00 in
Snow Depth Not available.
7:27 AM 5:55 PM
Waxing Crescent, 19% visible
METAR KTQE 121054Z AUTO 33010KT 6SM BR BKN030 OVC042 M07/M09 A3034 RMK AO2 SLP287 T10721094
Pressure 30.38 in
Visibility 6.0 miles
Clouds Mostly Cloudy 3000 ft
Overcast 4200 ft
Windchill 11 °F
Dew Point 13 °F
Humidity 72%
Rainfall 0.00 in
Snow Depth Not available.
7:27 AM 5:55 PM
Waxing Crescent, 19% visible
METAR KTQE 121054Z AUTO 33010KT 6SM BR BKN030 OVC042 M07/M09 A3034 RMK AO2 SLP287 T10721094

10-Day Weather Forecast

Almanac

Astronomy

Feb. 12, 2016 Rise Set
Actual Time
Civil Twilight
Nautical Twilight
Astronomical Twilight
Moon
Length of Visible Light
Length of Day
Tomorrow will be .
, % of the Moon is Illuminated

Today's Extremes

State Highs State Lows

Community

WunderPhotos

Upload Photos

1,892,289 photos uploaded!

WunderBlog® & News

Nearby

Air Quality

  Air Quality AQ Index Pollutant
Not available.

Snow Depth

Station Depth Elevation

Earthquake Activity

City Distance Mag. Time & Date
Minimum magnitude displayed is 2.5.

Coastal Water Temperatures

Place Temperature

Stations

Nearby Weather Stations

Station Location Temp. Windchill Dew Point Humidity Wind Precip. Elev Updated Type
                   

Watches & Warnings

There are currently no watches in effect.